sensor_id;sensor_type;location;lat;lon;timestamp;pressure;altitude;pressure_sealevel;temperature;humidity
68941;BME280;55982;51.476;7.552;2023-08-30T00:00:10;99126.25;;;15.60;100.00
68941;BME280;55982;51.476;7.552;2023-08-30T00:02:36;99118.94;;;15.51;100.00
68941;BME280;55982;51.476;7.552;2023-08-30T00:05:03;99126.94;;;15.49;100.00
68941;BME280;55982;51.476;7.552;2023-08-30T00:07:29;99128.34;;;15.41;100.00
68941;BME280;55982;51.476;7.552;2023-08-30T00:09:54;99123.88;;;15.29;100.00
68941;BME280;55982;51.476;7.552;2023-08-30T00:12:20;99131.41;;;15.21;100.00
68941;BME280;55982;51.476;7.552;2023-08-30T00:14:47;99124.81;;;15.14;100.00
68941;BME280;55982;51.476;7.552;2023-08-30T00:17:12;99119.75;;;15.11;100.00
68941;BME280;55982;51.476;7.552;2023-08-30T00:19:37;99119.19;;;15.06;100.00
68941;BME280;55982;51.476;7.552;2023-08-30T00:22:03;99118.63;;;15.01;100.00
68941;BME280;55982;51.476;7.552;2023-08-30T00:24:28;99121.56;;;14.96;100.00
68941;BME280;55982;51.476;7.552;2023-08-30T00:26:54;99124.84;;;14.86;100.00
68941;BME280;55982;51.476;7.552;2023-08-30T00:29:19;99127.28;;;14.75;100.00
68941;BME280;55982;51.476;7.552;2023-08-30T00:31:45;99128.31;;;14.72;100.00
68941;BME280;55982;51.476;7.552;2023-08-30T00:34:10;99129.53;;;14.66;100.00
68941;BME280;55982;51.476;7.552;2023-08-30T00:36:35;99116.84;;;14.59;100.00
68941;BME280;55982;51.476;7.552;2023-08-30T00:39:02;99122.47;;;14.53;100.00
68941;BME280;55982;51.476;7.552;2023-08-30T00:41:29;99128.75;;;14.50;100.00
68941;BME280;55982;51.476;7.552;2023-08-30T00:43:54;99122.16;;;14.43;100.00
68941;BME280;55982;51.476;7.552;2023-08-30T00:46:19;99123.28;;;14.39;100.00
68941;BME280;55982;51.476;7.552;2023-08-30T00:48:45;99126.28;;;14.33;100.00
68941;BME280;55982;51.476;7.552;2023-08-30T00:51:10;99109.75;;;14.31;100.00
68941;BME280;55982;51.476;7.552;2023-08-30T00:53:36;99115.75;;;14.33;100.00
68941;BME280;55982;51.476;7.552;2023-08-30T00:56:02;99114.25;;;14.29;100.00
68941;BME280;55982;51.476;7.552;2023-08-30T00:58:27;99116.88;;;14.29;100.00
68941;BME280;55982;51.476;7.552;2023-08-30T01:00:54;99112.56;;;14.28;100.00
68941;BME280;55982;51.476;7.552;2023-08-30T01:03:20;99104.66;;;14.28;100.00
68941;BME280;55982;51.476;7.552;2023-08-30T01:05:47;99106.44;;;14.28;100.00
68941;BME280;55982;51.476;7.552;2023-08-30T01:08:12;99098.81;;;14.23;100.00
68941;BME280;55982;51.476;7.552;2023-08-30T01:13:19;99092.03;;;14.19;100.00
68941;BME280;55982;51.476;7.552;2023-08-30T01:15:48;99096.81;;;14.13;100.00
68941;BME280;55982;51.476;7.552;2023-08-30T01:18:18;99094.44;;;14.08;100.00
68941;BME280;55982;51.476;7.552;2023-08-30T01:20:45;99094.81;;;14.02;100.00
68941;BME280;55982;51.476;7.552;2023-08-30T01:24:23;99086.69;;;13.91;100.00
68941;BME280;55982;51.476;7.552;2023-08-30T01:29:02;99093.69;;;13.76;100.00
68941;BME280;55982;51.476;7.552;2023-08-30T01:31:29;99093.03;;;13.73;100.00
68941;BME280;55982;51.476;7.552;2023-08-30T01:33:58;99088.97;;;13.67;100.00
68941;BME280;55982;51.476;7.552;2023-08-30T01:36:24;99086.94;;;13.57;100.00
68941;BME280;55982;51.476;7.552;2023-08-30T01:38:51;99090.69;;;13.53;100.00
68941;BME280;55982;51.476;7.552;2023-08-30T01:41:17;99093.50;;;13.50;100.00
68941;BME280;55982;51.476;7.552;2023-08-30T01:43:44;99085.75;;;13.47;100.00
68941;BME280;55982;51.476;7.552;2023-08-30T01:46:09;99088.31;;;13.48;100.00
68941;BME280;55982;51.476;7.552;2023-08-30T01:48:35;99083.91;;;13.49;100.00
68941;BME280;55982;51.476;7.552;2023-08-30T01:51:02;99082.47;;;13.43;100.00
68941;BME280;55982;51.476;7.552;2023-08-30T01:53:29;99094.94;;;13.40;100.00
68941;BME280;55982;51.476;7.552;2023-08-30T01:55:55;99092.13;;;13.43;100.00
68941;BME280;55982;51.476;7.552;2023-08-30T01:58:21;99089.50;;;13.43;100.00
68941;BME280;55982;51.476;7.552;2023-08-30T02:00:46;99092.72;;;13.48;100.00
68941;BME280;55982;51.476;7.552;2023-08-30T02:03:13;99092.44;;;13.52;100.00
68941;BME280;55982;51.476;7.552;2023-08-30T02:05:52;99090.34;;;13.59;100.00
68941;BME280;55982;51.476;7.552;2023-08-30T02:08:22;99089.31;;;13.61;100.00
68941;BME280;55982;51.476;7.552;2023-08-30T02:10:55;99088.47;;;13.61;100.00
68941;BME280;55982;51.476;7.552;2023-08-30T02:13:25;99092.88;;;13.60;100.00
68941;BME280;55982;51.476;7.552;2023-08-30T02:15:54;99090.69;;;13.53;100.00
68941;BME280;55982;51.476;7.552;2023-08-30T02:18:20;99086.53;;;13.49;100.00
68941;BME280;55982;51.476;7.552;2023-08-30T02:20:46;99086.81;;;13.44;100.00
68941;BME280;55982;51.476;7.552;2023-08-30T02:23:11;99082.91;;;13.36;100.00
68941;BME280;55982;51.476;7.552;2023-08-30T02:25:37;99082.03;;;13.35;100.00
68941;BME280;55982;51.476;7.552;2023-08-30T02:28:02;99088.41;;;13.31;100.00
68941;BME280;55982;51.476;7.552;2023-08-30T02:30:28;99088.25;;;13.34;100.00
68941;BME280;55982;51.476;7.552;2023-08-30T02:32:54;99084.41;;;13.40;100.00
68941;BME280;55982;51.476;7.552;2023-08-30T02:35:20;99084.59;;;13.37;100.00
68941;BME280;55982;51.476;7.552;2023-08-30T02:37:45;99086.28;;;13.38;100.00
68941;BME280;55982;51.476;7.552;2023-08-30T02:40:11;99087.16;;;13.38;100.00
68941;BME280;55982;51.476;7.552;2023-08-30T02:42:36;99088.81;;;13.39;100.00
68941;BME280;55982;51.476;7.552;2023-08-30T02:45:01;99075.59;;;13.41;100.00
68941;BME280;55982;51.476;7.552;2023-08-30T02:47:27;99080.84;;;13.41;100.00
68941;BME280;55982;51.476;7.552;2023-08-30T02:49:52;99075.00;;;13.36;100.00
68941;BME280;55982;51.476;7.552;2023-08-30T02:52:18;99074.25;;;13.34;100.00
68941;BME280;55982;51.476;7.552;2023-08-30T02:54:43;99075.09;;;13.34;100.00
68941;BME280;55982;51.476;7.552;2023-08-30T02:57:08;99075.59;;;13.41;100.00
68941;BME280;55982;51.476;7.552;2023-08-30T02:59:34;99075.84;;;13.52;100.00
68941;BME280;55982;51.476;7.552;2023-08-30T03:01:59;99076.28;;;13.60;100.00
68941;BME280;55982;51.476;7.552;2023-08-30T03:04:24;99065.38;;;13.66;100.00
68941;BME280;55982;51.476;7.552;2023-08-30T03:06:50;99075.38;;;13.75;100.00
68941;BME280;55982;51.476;7.552;2023-08-30T03:09:15;99074.34;;;13.77;100.00
68941;BME280;55982;51.476;7.552;2023-08-30T03:11:40;99068.59;;;13.71;100.00
68941;BME280;55982;51.476;7.552;2023-08-30T03:14:06;99069.63;;;13.68;100.00
68941;BME280;55982;51.476;7.552;2023-08-30T03:16:31;99071.03;;;13.60;100.00
68941;BME280;55982;51.476;7.552;2023-08-30T03:18:57;99074.22;;;13.65;100.00
68941;BME280;55982;51.476;7.552;2023-08-30T03:21:23;99072.34;;;13.67;100.00
68941;BME280;55982;51.476;7.552;2023-08-30T03:23:48;99070.47;;;13.69;100.00
68941;BME280;55982;51.476;7.552;2023-08-30T03:26:15;99063.34;;;13.71;100.00
68941;BME280;55982;51.476;7.552;2023-08-30T03:28:42;99064.38;;;13.68;100.00
68941;BME280;55982;51.476;7.552;2023-08-30T03:31:18;99061.84;;;13.67;100.00
68941;BME280;55982;51.476;7.552;2023-08-30T03:33:44;99062.59;;;13.69;100.00
68941;BME280;55982;51.476;7.552;2023-08-30T03:36:10;99065.78;;;13.74;100.00
68941;BME280;55982;51.476;7.552;2023-08-30T03:38:36;99066.34;;;13.65;100.00
68941;BME280;55982;51.476;7.552;2023-08-30T03:41:02;99063.13;;;13.60;100.00
68941;BME280;55982;51.476;7.552;2023-08-30T03:43:29;99063.41;;;13.40;100.00
68941;BME280;55982;51.476;7.552;2023-08-30T03:45:54;99072.88;;;13.58;100.00
68941;BME280;55982;51.476;7.552;2023-08-30T03:48:19;99065.09;;;13.41;100.00
68941;BME280;55982;51.476;7.552;2023-08-30T03:50:45;99059.09;;;13.39;100.00
68941;BME280;55982;51.476;7.552;2023-08-30T03:53:10;99059.16;;;13.37;100.00
68941;BME280;55982;51.476;7.552;2023-08-30T03:55:36;99051.56;;;13.33;100.00
68941;BME280;55982;51.476;7.552;2023-08-30T03:58:01;99048.31;;;13.28;100.00
68941;BME280;55982;51.476;7.552;2023-08-30T04:00:26;99043.25;;;13.25;100.00
68941;BME280;55982;51.476;7.552;2023-08-30T04:02:52;99038.69;;;13.13;100.00
68941;BME280;55982;51.476;7.552;2023-08-30T04:05:17;99046.91;;;13.22;100.00
68941;BME280;55982;51.476;7.552;2023-08-30T04:07:42;99040.31;;;13.15;100.00
68941;BME280;55982;51.476;7.552;2023-08-30T04:10:08;99049.72;;;13.04;100.00
68941;BME280;55982;51.476;7.552;2023-08-30T04:12:34;99045.09;;;12.92;100.00
68941;BME280;55982;51.476;7.552;2023-08-30T04:15:01;99040.59;;;12.94;100.00
68941;BME280;55982;51.476;7.552;2023-08-30T04:17:27;99034.59;;;12.92;100.00
68941;BME280;55982;51.476;7.552;2023-08-30T04:19:52;99039.34;;;12.85;100.00
68941;BME280;55982;51.476;7.552;2023-08-30T04:22:18;99038.16;;;12.91;100.00
68941;BME280;55982;51.476;7.552;2023-08-30T04:24:43;99040.69;;;12.92;100.00
68941;BME280;55982;51.476;7.552;2023-08-30T04:27:09;99037.06;;;12.95;100.00
68941;BME280;55982;51.476;7.552;2023-08-30T04:29:34;99043.44;;;13.06;100.00
68941;BME280;55982;51.476;7.552;2023-08-30T04:32:00;99041.91;;;13.18;100.00
68941;BME280;55982;51.476;7.552;2023-08-30T04:34:25;99049.03;;;13.16;100.00
68941;BME280;55982;51.476;7.552;2023-08-30T04:36:51;99040.53;;;13.11;100.00
68941;BME280;55982;51.476;7.552;2023-08-30T04:39:16;99042.72;;;13.03;100.00
68941;BME280;55982;51.476;7.552;2023-08-30T04:41:42;99050.56;;;13.04;100.00
68941;BME280;55982;51.476;7.552;2023-08-30T04:44:07;99047.13;;;12.86;100.00
68941;BME280;55982;51.476;7.552;2023-08-30T04:46:32;99045.75;;;12.79;100.00
68941;BME280;55982;51.476;7.552;2023-08-30T04:48:58;99042.78;;;12.70;100.00
68941;BME280;55982;51.476;7.552;2023-08-30T04:51:23;99041.25;;;12.66;100.00
68941;BME280;55982;51.476;7.552;2023-08-30T04:53:49;99043.19;;;12.62;100.00
68941;BME280;55982;51.476;7.552;2023-08-30T04:56:14;99036.59;;;12.55;100.00
68941;BME280;55982;51.476;7.552;2023-08-30T04:58:40;99036.41;;;12.58;100.00
68941;BME280;55982;51.476;7.552;2023-08-30T05:01:05;99033.72;;;12.60;100.00
68941;BME280;55982;51.476;7.552;2023-08-30T05:03:32;99031.78;;;12.63;100.00
68941;BME280;55982;51.476;7.552;2023-08-30T05:05:57;99027.44;;;12.62;100.00
68941;BME280;55982;51.476;7.552;2023-08-30T05:08:23;99023.91;;;12.63;100.00
68941;BME280;55982;51.476;7.552;2023-08-30T05:10:48;99024.25;;;12.57;100.00
68941;BME280;55982;51.476;7.552;2023-08-30T05:13:16;99018.03;;;12.58;100.00
68941;BME280;55982;51.476;7.552;2023-08-30T05:15:42;99012.03;;;12.56;100.00
68941;BME280;55982;51.476;7.552;2023-08-30T05:18:07;99016.97;;;12.62;100.00
68941;BME280;55982;51.476;7.552;2023-08-30T05:20:32;99018.34;;;12.69;100.00
68941;BME280;55982;51.476;7.552;2023-08-30T05:22:58;99012.56;;;12.78;100.00
68941;BME280;55982;51.476;7.552;2023-08-30T05:25:23;99016.63;;;12.84;100.00
68941;BME280;55982;51.476;7.552;2023-08-30T05:27:49;99010.06;;;12.93;100.00
68941;BME280;55982;51.476;7.552;2023-08-30T05:30:14;99009.00;;;12.95;100.00
68941;BME280;55982;51.476;7.552;2023-08-30T05:32:40;98997.69;;;12.95;100.00
68941;BME280;55982;51.476;7.552;2023-08-30T05:35:05;98992.25;;;12.98;100.00
68941;BME280;55982;51.476;7.552;2023-08-30T05:37:31;98986.81;;;13.01;100.00
68941;BME280;55982;51.476;7.552;2023-08-30T05:39:57;98976.31;;;13.01;100.00
68941;BME280;55982;51.476;7.552;2023-08-30T05:42:23;98981.78;;;13.13;100.00
68941;BME280;55982;51.476;7.552;2023-08-30T05:44:48;98981.91;;;13.26;100.00
68941;BME280;55982;51.476;7.552;2023-08-30T05:47:13;98979.53;;;13.37;100.00
68941;BME280;55982;51.476;7.552;2023-08-30T05:49:40;98982.38;;;13.48;100.00
68941;BME280;55982;51.476;7.552;2023-08-30T05:52:06;98981.66;;;13.60;100.00
68941;BME280;55982;51.476;7.552;2023-08-30T05:54:31;98989.75;;;13.71;100.00
68941;BME280;55982;51.476;7.552;2023-08-30T05:56:59;98984.59;;;13.69;100.00
68941;BME280;55982;51.476;7.552;2023-08-30T05:59:24;98984.69;;;13.82;100.00
68941;BME280;55982;51.476;7.552;2023-08-30T06:01:49;98979.25;;;13.85;100.00
68941;BME280;55982;51.476;7.552;2023-08-30T06:04:15;98972.88;;;13.89;100.00
68941;BME280;55982;51.476;7.552;2023-08-30T06:06:40;98968.75;;;13.99;100.00
68941;BME280;55982;51.476;7.552;2023-08-30T06:09:06;98962.47;;;14.02;100.00
68941;BME280;55982;51.476;7.552;2023-08-30T06:11:32;98961.44;;;14.04;100.00
68941;BME280;55982;51.476;7.552;2023-08-30T06:13:57;98965.75;;;14.05;100.00
68941;BME280;55982;51.476;7.552;2023-08-30T06:16:24;98956.00;;;14.07;100.00
68941;BME280;55982;51.476;7.552;2023-08-30T06:18:50;98955.41;;;14.16;100.00
68941;BME280;55982;51.476;7.552;2023-08-30T06:21:15;98953.38;;;14.21;100.00
68941;BME280;55982;51.476;7.552;2023-08-30T06:23:40;98947.56;;;14.30;100.00
68941;BME280;55982;51.476;7.552;2023-08-30T06:26:06;98950.56;;;14.38;100.00
68941;BME280;55982;51.476;7.552;2023-08-30T06:28:31;98941.34;;;14.45;100.00
68941;BME280;55982;51.476;7.552;2023-08-30T06:30:57;98938.72;;;14.45;100.00
68941;BME280;55982;51.476;7.552;2023-08-30T06:33:22;98941.44;;;14.58;100.00
68941;BME280;55982;51.476;7.552;2023-08-30T06:35:49;98929.47;;;14.66;100.00
68941;BME280;55982;51.476;7.552;2023-08-30T06:38:16;98928.03;;;14.75;100.00
68941;BME280;55982;51.476;7.552;2023-08-30T06:40:48;98925.44;;;14.88;100.00
68941;BME280;55982;51.476;7.552;2023-08-30T06:43:14;98919.91;;;14.92;100.00
68941;BME280;55982;51.476;7.552;2023-08-30T06:45:41;98915.06;;;14.99;100.00
68941;BME280;55982;51.476;7.552;2023-08-30T06:48:07;98924.78;;;15.11;100.00
68941;BME280;55982;51.476;7.552;2023-08-30T06:50:33;98916.28;;;15.20;100.00
68941;BME280;55982;51.476;7.552;2023-08-30T06:52:58;98914.28;;;15.23;100.00
68941;BME280;55982;51.476;7.552;2023-08-30T06:55:24;98914.09;;;15.39;100.00
68941;BME280;55982;51.476;7.552;2023-08-30T06:57:49;98905.53;;;15.62;100.00
68941;BME280;55982;51.476;7.552;2023-08-30T07:00:15;98904.28;;;15.80;100.00
68941;BME280;55982;51.476;7.552;2023-08-30T07:02:41;98902.97;;;15.98;100.00
68941;BME280;55982;51.476;7.552;2023-08-30T07:05:10;98893.28;;;16.11;100.00
68941;BME280;55982;51.476;7.552;2023-08-30T07:07:35;98896.63;;;16.26;100.00
68941;BME280;55982;51.476;7.552;2023-08-30T07:10:01;98899.69;;;16.32;100.00
68941;BME280;55982;51.476;7.552;2023-08-30T07:12:26;98902.09;;;16.35;100.00
68941;BME280;55982;51.476;7.552;2023-08-30T07:14:51;98897.78;;;16.34;100.00
68941;BME280;55982;51.476;7.552;2023-08-30T07:17:17;98889.81;;;16.47;100.00
68941;BME280;55982;51.476;7.552;2023-08-30T07:19:42;98887.13;;;16.72;100.00
68941;BME280;55982;51.476;7.552;2023-08-30T07:22:07;98885.09;;;16.76;100.00
68941;BME280;55982;51.476;7.552;2023-08-30T07:24:33;98875.94;;;17.27;100.00
68941;BME280;55982;51.476;7.552;2023-08-30T07:26:58;98875.38;;;17.80;100.00
68941;BME280;55982;51.476;7.552;2023-08-30T07:29:24;98873.25;;;18.07;100.00
68941;BME280;55982;51.476;7.552;2023-08-30T07:31:49;98869.84;;;18.27;100.00
68941;BME280;55982;51.476;7.552;2023-08-30T07:34:16;98868.25;;;18.58;100.00
68941;BME280;55982;51.476;7.552;2023-08-30T07:36:42;98859.88;;;18.85;100.00
68941;BME280;55982;51.476;7.552;2023-08-30T07:39:07;98864.31;;;19.16;100.00
68941;BME280;55982;51.476;7.552;2023-08-30T07:41:33;98854.88;;;19.55;100.00
68941;BME280;55982;51.476;7.552;2023-08-30T07:43:59;98853.75;;;19.78;100.00
68941;BME280;55982;51.476;7.552;2023-08-30T07:46:24;98853.84;;;20.27;100.00
68941;BME280;55982;51.476;7.552;2023-08-30T07:48:50;98850.53;;;20.54;100.00
68941;BME280;55982;51.476;7.552;2023-08-30T07:51:16;98844.72;;;20.88;100.00
68941;BME280;55982;51.476;7.552;2023-08-30T07:53:41;98844.47;;;21.30;100.00
68941;BME280;55982;51.476;7.552;2023-08-30T07:56:06;98849.44;;;21.80;100.00
68941;BME280;55982;51.476;7.552;2023-08-30T07:58:32;98852.19;;;21.98;100.00
68941;BME280;55982;51.476;7.552;2023-08-30T08:00:58;98857.09;;;21.28;100.00
68941;BME280;55982;51.476;7.552;2023-08-30T08:03:23;98847.66;;;21.52;100.00
68941;BME280;55982;51.476;7.552;2023-08-30T08:05:49;98855.06;;;21.58;100.00
68941;BME280;55982;51.476;7.552;2023-08-30T08:08:14;98854.34;;;22.22;100.00
68941;BME280;55982;51.476;7.552;2023-08-30T08:10:41;98858.94;;;21.93;100.00
68941;BME280;55982;51.476;7.552;2023-08-30T08:13:06;98846.66;;;21.72;100.00
68941;BME280;55982;51.476;7.552;2023-08-30T08:15:32;98856.09;;;22.04;100.00
68941;BME280;55982;51.476;7.552;2023-08-30T08:17:59;98865.69;;;22.51;100.00
68941;BME280;55982;51.476;7.552;2023-08-30T08:20:24;98856.41;;;22.55;100.00
68941;BME280;55982;51.476;7.552;2023-08-30T08:22:50;98861.22;;;22.42;100.00
68941;BME280;55982;51.476;7.552;2023-08-30T08:25:15;98856.63;;;22.17;100.00
68941;BME280;55982;51.476;7.552;2023-08-30T08:27:41;98854.72;;;22.54;100.00
68941;BME280;55982;51.476;7.552;2023-08-30T08:30:07;98854.03;;;22.79;100.00
68941;BME280;55982;51.476;7.552;2023-08-30T08:32:33;98839.88;;;23.31;100.00
68941;BME280;55982;51.476;7.552;2023-08-30T08:34:58;98839.88;;;23.31;100.00
68941;BME280;55982;51.476;7.552;2023-08-30T08:37:24;98839.44;;;23.61;100.00
68941;BME280;55982;51.476;7.552;2023-08-30T08:39:49;98837.63;;;23.88;100.00
68941;BME280;55982;51.476;7.552;2023-08-30T08:42:19;98844.94;;;23.86;100.00
68941;BME280;55982;51.476;7.552;2023-08-30T08:44:46;98834.59;;;23.57;97.87
68941;BME280;55982;51.476;7.552;2023-08-30T08:47:15;98837.66;;;24.21;100.00
68941;BME280;55982;51.476;7.552;2023-08-30T08:49:42;98837.28;;;24.16;100.00
68941;BME280;55982;51.476;7.552;2023-08-30T08:52:08;98836.56;;;24.48;94.84
68941;BME280;55982;51.476;7.552;2023-08-30T08:54:36;98835.53;;;24.91;88.03
68941;BME280;55982;51.476;7.552;2023-08-30T08:57:05;98840.00;;;23.99;90.94
68941;BME280;55982;51.476;7.552;2023-08-30T08:59:31;98829.69;;;23.52;100.00
68941;BME280;55982;51.476;7.552;2023-08-30T09:01:56;98830.31;;;23.46;100.00
68941;BME280;55982;51.476;7.552;2023-08-30T09:04:22;98827.66;;;23.46;100.00
68941;BME280;55982;51.476;7.552;2023-08-30T09:06:49;98830.47;;;22.30;100.00
68941;BME280;55982;51.476;7.552;2023-08-30T09:09:15;98839.22;;;22.67;100.00
68941;BME280;55982;51.476;7.552;2023-08-30T09:11:40;98824.94;;;22.68;100.00
68941;BME280;55982;51.476;7.552;2023-08-30T09:14:06;98829.88;;;22.36;96.43
68941;BME280;55982;51.476;7.552;2023-08-30T09:16:31;98826.94;;;22.29;99.27
68941;BME280;55982;51.476;7.552;2023-08-30T09:19:01;98825.13;;;22.03;99.08
68941;BME280;55982;51.476;7.552;2023-08-30T09:21:27;98818.75;;;21.21;100.00
68941;BME280;55982;51.476;7.552;2023-08-30T09:24:03;98810.06;;;21.09;100.00
68941;BME280;55982;51.476;7.552;2023-08-30T09:26:29;98823.78;;;21.14;100.00
68941;BME280;55982;51.476;7.552;2023-08-30T09:29:04;98822.47;;;22.03;100.00
68941;BME280;55982;51.476;7.552;2023-08-30T09:31:34;98826.44;;;21.79;100.00
68941;BME280;55982;51.476;7.552;2023-08-30T09:34:00;98810.84;;;21.38;100.00
68941;BME280;55982;51.476;7.552;2023-08-30T09:36:32;98811.44;;;21.32;100.00
68941;BME280;55982;51.476;7.552;2023-08-30T09:38:58;98801.91;;;21.39;100.00
68941;BME280;55982;51.476;7.552;2023-08-30T09:41:24;98800.19;;;21.48;100.00
68941;BME280;55982;51.476;7.552;2023-08-30T09:43:50;98800.09;;;22.85;100.00
68941;BME280;55982;51.476;7.552;2023-08-30T09:46:15;98793.38;;;23.16;96.25
68941;BME280;55982;51.476;7.552;2023-08-30T09:48:41;98785.03;;;23.63;92.75
68941;BME280;55982;51.476;7.552;2023-08-30T09:51:07;98791.34;;;24.21;90.12
68941;BME280;55982;51.476;7.552;2023-08-30T09:53:40;98778.34;;;23.58;90.73
68941;BME280;55982;51.476;7.552;2023-08-30T09:56:09;98788.28;;;23.48;86.81
68941;BME280;55982;51.476;7.552;2023-08-30T09:58:36;98785.03;;;23.19;99.45
68941;BME280;55982;51.476;7.552;2023-08-30T10:01:03;98779.59;;;22.86;93.82
68941;BME280;55982;51.476;7.552;2023-08-30T10:03:30;98792.47;;;22.90;97.24
68941;BME280;55982;51.476;7.552;2023-08-30T10:05:56;98783.75;;;22.53;100.00
68941;BME280;55982;51.476;7.552;2023-08-30T10:08:22;98787.28;;;22.26;100.00
68941;BME280;55982;51.476;7.552;2023-08-30T10:10:49;98781.06;;;21.71;100.00
68941;BME280;55982;51.476;7.552;2023-08-30T10:13:17;98773.03;;;21.35;100.00
68941;BME280;55982;51.476;7.552;2023-08-30T10:15:45;98770.56;;;20.66;100.00
68941;BME280;55982;51.476;7.552;2023-08-30T10:18:15;98768.88;;;20.56;100.00
68941;BME280;55982;51.476;7.552;2023-08-30T10:20:44;98770.16;;;20.80;100.00
68941;BME280;55982;51.476;7.552;2023-08-30T10:23:10;98767.06;;;21.04;100.00
68941;BME280;55982;51.476;7.552;2023-08-30T10:25:37;98765.22;;;21.33;100.00
68941;BME280;55982;51.476;7.552;2023-08-30T10:28:04;98760.66;;;21.62;100.00
68941;BME280;55982;51.476;7.552;2023-08-30T10:30:30;98751.72;;;21.44;100.00
68941;BME280;55982;51.476;7.552;2023-08-30T10:32:55;98759.09;;;21.04;100.00
68941;BME280;55982;51.476;7.552;2023-08-30T10:35:21;98753.75;;;20.94;100.00
68941;BME280;55982;51.476;7.552;2023-08-30T10:37:56;98741.19;;;20.49;100.00
68941;BME280;55982;51.476;7.552;2023-08-30T10:40:22;98754.31;;;20.41;100.00
68941;BME280;55982;51.476;7.552;2023-08-30T10:43:04;98746.91;;;20.35;100.00
68941;BME280;55982;51.476;7.552;2023-08-30T10:45:29;98754.81;;;20.16;100.00
68941;BME280;55982;51.476;7.552;2023-08-30T10:47:57;98762.84;;;19.85;100.00
68941;BME280;55982;51.476;7.552;2023-08-30T10:50:33;98755.75;;;19.65;100.00
68941;BME280;55982;51.476;7.552;2023-08-30T10:52:59;98757.81;;;18.90;100.00
68941;BME280;55982;51.476;7.552;2023-08-30T10:55:24;98760.22;;;18.73;100.00
68941;BME280;55982;51.476;7.552;2023-08-30T10:58:01;98766.97;;;18.23;100.00
68941;BME280;55982;51.476;7.552;2023-08-30T11:00:28;98777.44;;;18.13;100.00
68941;BME280;55982;51.476;7.552;2023-08-30T11:02:55;98799.13;;;18.07;100.00
68941;BME280;55982;51.476;7.552;2023-08-30T11:05:23;98791.56;;;17.59;100.00
68941;BME280;55982;51.476;7.552;2023-08-30T11:07:49;98802.16;;;17.24;100.00
68941;BME280;55982;51.476;7.552;2023-08-30T11:10:16;98799.72;;;17.10;100.00
68941;BME280;55982;51.476;7.552;2023-08-30T11:12:42;98806.53;;;17.36;100.00
68941;BME280;55982;51.476;7.552;2023-08-30T11:15:10;98811.34;;;17.42;100.00
68941;BME280;55982;51.476;7.552;2023-08-30T11:17:35;98804.81;;;17.35;100.00
68941;BME280;55982;51.476;7.552;2023-08-30T11:20:11;98810.13;;;17.35;100.00
68941;BME280;55982;51.476;7.552;2023-08-30T11:22:42;98807.22;;;17.27;100.00
68941;BME280;55982;51.476;7.552;2023-08-30T11:25:09;98814.19;;;17.28;100.00
68941;BME280;55982;51.476;7.552;2023-08-30T11:27:35;98828.66;;;17.46;100.00
68941;BME280;55982;51.476;7.552;2023-08-30T11:30:01;98811.53;;;17.17;100.00
68941;BME280;55982;51.476;7.552;2023-08-30T11:32:34;98824.09;;;17.02;100.00
68941;BME280;55982;51.476;7.552;2023-08-30T11:35:00;98822.97;;;16.83;100.00
68941;BME280;55982;51.476;7.552;2023-08-30T11:37:27;98819.59;;;16.81;100.00
68941;BME280;55982;51.476;7.552;2023-08-30T11:39:53;98824.88;;;16.81;100.00
68941;BME280;55982;51.476;7.552;2023-08-30T11:42:18;98818.16;;;16.64;100.00
68941;BME280;55982;51.476;7.552;2023-08-30T11:44:45;98824.22;;;16.77;100.00
68941;BME280;55982;51.476;7.552;2023-08-30T11:47:10;98828.06;;;17.08;100.00
68941;BME280;55982;51.476;7.552;2023-08-30T11:49:35;98818.75;;;17.15;100.00
68941;BME280;55982;51.476;7.552;2023-08-30T11:52:02;98814.19;;;17.28;100.00
68941;BME280;55982;51.476;7.552;2023-08-30T11:54:28;98815.38;;;17.24;100.00
68941;BME280;55982;51.476;7.552;2023-08-30T11:56:53;98804.91;;;17.11;100.00
68941;BME280;55982;51.476;7.552;2023-08-30T11:59:20;98812.22;;;17.08;100.00
68941;BME280;55982;51.476;7.552;2023-08-30T12:01:48;98816.94;;;16.81;100.00
68941;BME280;55982;51.476;7.552;2023-08-30T12:04:13;98820.03;;;16.75;100.00
68941;BME280;55982;51.476;7.552;2023-08-30T12:06:39;98822.03;;;16.95;100.00
68941;BME280;55982;51.476;7.552;2023-08-30T12:09:04;98823.28;;;17.02;100.00
68941;BME280;55982;51.476;7.552;2023-08-30T12:11:33;98815.28;;;16.91;100.00
68941;BME280;55982;51.476;7.552;2023-08-30T12:14:02;98824.53;;;16.62;100.00
68941;BME280;55982;51.476;7.552;2023-08-30T12:16:28;98823.19;;;16.43;100.00
68941;BME280;55982;51.476;7.552;2023-08-30T12:18:53;98827.13;;;16.38;100.00
68941;BME280;55982;51.476;7.552;2023-08-30T12:21:18;98827.38;;;16.22;100.00
68941;BME280;55982;51.476;7.552;2023-08-30T12:23:44;98831.31;;;16.17;100.00
68941;BME280;55982;51.476;7.552;2023-08-30T12:26:10;98836.25;;;16.21;100.00
68941;BME280;55982;51.476;7.552;2023-08-30T12:28:37;98837.88;;;16.11;100.00
68941;BME280;55982;51.476;7.552;2023-08-30T12:31:04;98842.97;;;15.89;100.00
68941;BME280;55982;51.476;7.552;2023-08-30T12:33:29;98839.28;;;15.79;100.00
68941;BME280;55982;51.476;7.552;2023-08-30T12:35:55;98842.88;;;15.78;100.00
68941;BME280;55982;51.476;7.552;2023-08-30T12:38:21;98842.13;;;15.76;100.00
68941;BME280;55982;51.476;7.552;2023-08-30T12:40:48;98840.97;;;15.68;100.00
68941;BME280;55982;51.476;7.552;2023-08-30T12:43:15;98853.66;;;15.63;100.00
68941;BME280;55982;51.476;7.552;2023-08-30T12:45:41;98850.06;;;15.64;100.00
68941;BME280;55982;51.476;7.552;2023-08-30T12:48:07;98856.59;;;15.58;100.00
68941;BME280;55982;51.476;7.552;2023-08-30T12:50:33;98839.72;;;15.48;100.00